Huvudsida
METAR-TAF:

METAR-TAF

Flygplatser :

Riyadh, Saudiarabien

latitud: 24-43N, longitud: 046-44E, höjd: 635 m

METAR: saknas

Tid: 17:09 (14:09 UTC)

Väderprognos

Denna rapport gjordes för 3 timmar och 9 minuter sedan, klockan 11:00 UTC
Prognos gäller från 24 kl. 12 UTC till 25 kl. 18 UTC
Vind 13 kt från sydost
Sikt: 7000 m
Blir
från 24 kl. 20 UTC till 24 kl. 22 UTC
Vind 3 kt varierande vindriktning

TAF: OERY 241100Z 2412/2518 14013KT 7000 NSC BECMG 2420/2422 VRB03KT

Aktuella väderrapporter och prognoser från 4000 flygplatser (METAR- och TAF-rapporter).

De tillgängliga stationerna syns som gula och röda prickar på kartan.

För musen över prickarna för att se namnen på stationerna.

Klicka sedan för att få väderrapporter och prognoser.

För att ändra kartan: Klicka på de gröna knapparna med ett svart kors på för att zooma in; den gröna knappen med ett streck på för att zooma ut; eller på de gröna pilarna för angränsande kartor.


METAR-TAF: